Time;durP1;ratioP1;P1;durP2;ratioP2;P2;SDS_P1;SDS_P2;PMS_P1;PMS_P2;Temp;Humidity;BMP_temperature;BMP_pressure;BME280_temperature;BME280_humidity;BME280_pressure;Samples;Min_cycle;Max_cycle;Signal;HPM_P1;HPM_P2
2023/03/01 00:01:36;;;;;;;;;12.25;11.75;;;;;;;;120089;1190;25104;-61
2023/03/01 00:04:04;;;;;;;;;15.25;12.50;;;;;;;;120089;1189;25574;-61
2023/03/01 00:06:32;;;;;;;;;13.50;11.75;;;;;;;;120104;1190;24951;-61
2023/03/01 00:09:01;;;;;;;;;12.00;12.00;;;;;;;;120112;1183;25353;-61
2023/03/01 00:11:31;;;;;;;;;14.75;11.25;;;;;;;;119939;1190;25662;-61
2023/03/01 00:14:01;;;;;;;;;10.50;8.75;;;;;;;;120123;1189;25642;-61
2023/03/01 00:16:35;;;;;;;;;11.00;10.33;;;;;;;;120098;1190;26183;-61
2023/03/01 00:19:03;;;;;;;;;13.50;12.50;;;;;;;;120108;1190;25254;-61
2023/03/01 00:21:32;;;;;;;;;11.00;10.33;;;;;;;;120096;1190;25682;-61
2023/03/01 00:24:00;;;;;;;;;11.00;11.00;;;;;;;;119930;1182;25513;-61
2023/03/01 00:26:29;;;;;;;;;10.00;10.00;;;;;;;;120109;1182;24947;-61
2023/03/01 00:28:58;;;;;;;;;14.25;12.00;;;;;;;;119931;1190;24892;-61
2023/03/01 00:31:29;;;;;;;;;10.00;10.00;;;;;;;;119918;1190;25837;-61
2023/03/01 00:34:00;;;;;;;;;12.00;10.75;;;;;;;;119952;1190;24995;-61
2023/03/01 00:36:33;;;;;;;;;12.33;10.00;;;;;;;;120113;1182;24947;-61
2023/03/01 00:39:04;;;;;;;;;7.00;7.00;;;;;;;;120091;1190;25265;-61
2023/03/01 00:41:34;;;;;;;;;9.75;8.00;;;;;;;;120104;1190;25380;-61
2023/03/01 00:44:02;;;;;;;;;9.75;9.00;;;;;;;;119943;1190;24983;-61
2023/03/01 00:46:31;;;;;;;;;12.00;9.75;;;;;;;;120098;1183;25357;-61
2023/03/01 00:49:01;;;;;;;;;10.50;10.00;;;;;;;;119951;1190;25536;-61
2023/03/01 00:51:30;;;;;;;;;12.50;11.00;;;;;;;;120104;1182;25423;-61
2023/03/01 00:54:01;;;;;;;;;8.25;7.50;;;;;;;;120092;1190;25003;-61
2023/03/01 00:56:30;;;;;;;;;11.50;8.50;;;;;;;;120114;1177;25762;-61
2023/03/01 00:59:00;;;;;;;;;10.75;10.75;;;;;;;;119936;1189;25335;-61
2023/03/01 01:01:29;;;;;;;;;11.67;9.00;;;;;;;;120098;1190;25140;-61
2023/03/01 01:04:01;;;;;;;;;11.50;9.75;;;;;;;;120119;1182;25555;-61
2023/03/01 01:06:35;;;;;;;;;9.75;7.25;;;;;;;;120111;1190;24910;-61
2023/03/01 01:09:07;;;;;;;;;12.00;9.25;;;;;;;;120105;1182;24996;-61
2023/03/01 01:11:36;;;;;;;;;11.33;10.00;;;;;;;;120107;1189;25050;-61
2023/03/01 01:14:04;;;;;;;;;12.33;10.00;;;;;;;;120122;1182;25480;-61
2023/03/01 01:16:33;;;;;;;;;10.50;10.50;;;;;;;;119935;1190;25587;-61
2023/03/01 01:19:01;;;;;;;;;12.33;11.67;;;;;;;;120103;1182;25288;-61
2023/03/01 01:21:30;;;;;;;;;9.75;9.25;;;;;;;;120096;1189;25221;-61
2023/03/01 01:23:58;;;;;;;;;9.00;9.00;;;;;;;;119924;1183;24962;-61
2023/03/01 01:26:29;;;;;;;;;10.33;10.33;;;;;;;;119923;1190;25006;-61
2023/03/01 01:28:58;;;;;;;;;11.75;10.50;;;;;;;;120105;1190;25521;-61
2023/03/01 01:31:28;;;;;;;;;9.00;7.67;;;;;;;;119941;1183;24790;-61
2023/03/01 01:33:57;;;;;;;;;8.50;8.25;;;;;;;;119898;1190;24795;-61
2023/03/01 01:36:25;;;;;;;;;13.50;11.75;;;;;;;;119936;1190;25088;-61
2023/03/01 01:38:53;;;;;;;;;11.00;10.00;;;;;;;;119939;1187;25451;-61
2023/03/01 01:41:23;;;;;;;;;7.00;7.00;;;;;;;;120110;1190;25117;-61
2023/03/01 01:44:14;;;;;;;;;11.25;10.25;;;;;;;;120083;1190;24853;-61
2023/03/01 01:46:47;;;;;;;;;9.67;9.67;;;;;;;;120103;1190;24760;-61
2023/03/01 01:49:15;;;;;;;;;10.00;10.00;;;;;;;;120102;1190;25455;-61
2023/03/01 01:51:47;;;;;;;;;9.67;9.67;;;;;;;;120115;1182;24960;-61
2023/03/01 01:54:21;;;;;;;;;10.25;9.25;;;;;;;;119916;1189;24928;-61
2023/03/01 01:56:58;;;;;;;;;12.00;9.67;;;;;;;;120094;1182;25131;-61
2023/03/01 01:59:29;;;;;;;;;9.75;8.75;;;;;;;;120107;1189;24974;-61
2023/03/01 02:02:02;;;;;;;;;10.33;9.67;;;;;;;;120133;1189;25395;-61
2023/03/01 02:04:32;;;;;;;;;14.50;11.50;;;;;;;;119939;1182;24915;-61
2023/03/01 02:07:12;;;;;;;;;11.50;9.75;;;;;;;;120117;1189;25186;-61
2023/03/01 02:09:43;;;;;;;;;10.50;9.25;;;;;;;;120111;1182;24958;-62
2023/03/01 02:12:13;;;;;;;;;11.50;7.50;;;;;;;;119917;1183;24747;-61
2023/03/01 02:14:42;;;;;;;;;7.00;7.00;;;;;;;;119925;1190;25040;-62
2023/03/01 02:17:11;;;;;;;;;6.67;4.67;;;;;;;;120110;1190;24983;-61
2023/03/01 02:19:47;;;;;;;;;8.00;7.50;;;;;;;;119926;1190;24904;-62
2023/03/01 02:22:30;;;;;;;;;12.25;10.50;;;;;;;;120098;1189;25402;-61
2023/03/01 02:25:07;;;;;;;;;10.25;9.00;;;;;;;;119931;1190;25529;-62
2023/03/01 02:27:45;;;;;;;;;9.00;9.00;;;;;;;;120100;1189;25097;-61
2023/03/01 02:30:13;;;;;;;;;14.25;10.25;;;;;;;;120121;1182;25099;-61
2023/03/01 02:32:42;;;;;;;;;8.67;7.67;;;;;;;;119940;1190;24957;-62
2023/03/01 02:35:12;;;;;;;;;11.50;10.00;;;;;;;;120109;1181;25362;-62
2023/03/01 02:37:41;;;;;;;;;9.25;8.50;;;;;;;;119922;1190;25168;-61
2023/03/01 02:40:17;;;;;;;;;10.00;10.00;;;;;;;;119920;1183;25618;-62
2023/03/01 02:42:57;;;;;;;;;13.00;11.50;;;;;;;;119944;1190;24725;-61
2023/03/01 02:45:26;;;;;;;;;10.00;8.00;;;;;;;;119954;1183;24889;-62
2023/03/01 02:47:56;;;;;;;;;12.25;10.00;;;;;;;;119925;1190;24958;-61
2023/03/01 02:50:30;;;;;;;;;7.00;7.00;;;;;;;;120094;1190;25262;-61
2023/03/01 02:53:21;;;;;;;;;8.33;7.33;;;;;;;;120225;1183;25492;-61
2023/03/01 02:55:49;;;;;;;;;10.50;8.75;;;;;;;;119931;1183;25133;-61
2023/03/01 02:58:18;;;;;;;;;8.50;8.50;;;;;;;;120098;1190;25270;-61
2023/03/01 03:00:49;;;;;;;;;9.25;8.00;;;;;;;;119921;1186;25031;-62
2023/03/01 03:03:20;;;;;;;;;9.00;7.00;;;;;;;;120088;1189;24982;-61
2023/03/01 03:05:48;;;;;;;;;8.00;7.25;;;;;;;;119941;1183;24968;-61
2023/03/01 03:08:23;;;;;;;;;7.50;7.50;;;;;;;;119924;1190;25661;-61
2023/03/01 03:10:52;;;;;;;;;8.00;7.00;;;;;;;;119951;1190;25056;-61
2023/03/01 03:13:21;;;;;;;;;7.00;5.00;;;;;;;;119960;1190;25552;-61
2023/03/01 03:15:50;;;;;;;;;8.25;7.00;;;;;;;;120081;1189;25661;-62
2023/03/01 03:18:18;;;;;;;;;8.50;8.00;;;;;;;;120104;1190;25563;-61
2023/03/01 03:20:47;;;;;;;;;8.67;8.00;;;;;;;;120111;1190;25673;-61
2023/03/01 03:23:15;;;;;;;;;8.25;7.25;;;;;;;;120116;1190;25537;-62
2023/03/01 03:25:44;;;;;;;;;7.75;6.00;;;;;;;;120105;1189;25413;-62
2023/03/01 03:28:12;;;;;;;;;8.00;8.00;;;;;;;;120091;1190;24755;-62
2023/03/01 03:30:41;;;;;;;;;8.67;8.00;;;;;;;;120105;1190;25199;-62
2023/03/01 03:33:13;;;;;;;;;7.67;7.67;;;;;;;;119939;1190;24894;-62
2023/03/01 03:35:44;;;;;;;;;7.00;6.75;;;;;;;;119923;1190;25066;-62
2023/03/01 03:38:17;;;;;;;;;9.50;6.00;;;;;;;;120095;1182;24853;-62
2023/03/01 03:40:47;;;;;;;;;4.33;4.33;;;;;;;;120103;1190;25499;-62
2023/03/01 03:43:21;;;;;;;;;7.00;6.00;;;;;;;;119951;1190;24969;-62
2023/03/01 03:45:50;;;;;;;;;8.75;7.00;;;;;;;;120073;1182;24853;-62
2023/03/01 03:48:19;;;;;;;;;8.75;8.00;;;;;;;;119898;1190;25113;-62
2023/03/01 03:50:49;;;;;;;;;8.25;8.00;;;;;;;;119844;1185;25500;-62
2023/03/01 03:53:18;;;;;;;;;9.50;7.50;;;;;;;;120080;1186;25280;-62
2023/03/01 03:55:49;;;;;;;;;5.00;5.00;;;;;;;;119899;1190;24825;-61
2023/03/01 03:58:19;;;;;;;;;7.00;7.00;;;;;;;;119924;1190;25266;-62
2023/03/01 04:00:55;;;;;;;;;7.75;7.00;;;;;;;;120006;1187;25396;-62
2023/03/01 04:03:25;;;;;;;;;11.50;9.00;;;;;;;;120131;1182;25219;-62
2023/03/01 04:05:53;;;;;;;;;9.00;8.75;;;;;;;;119941;1182;24933;-61
2023/03/01 04:08:22;;;;;;;;;9.00;7.67;;;;;;;;120098;1182;24805;-61
2023/03/01 04:10:53;;;;;;;;;10.25;8.75;;;;;;;;119949;1190;24919;-59
2023/03/01 04:13:22;;;;;;;;;12.67;11.00;;;;;;;;120081;1190;25099;-59
2023/03/01 04:15:52;;;;;;;;;9.00;9.00;;;;;;;;119881;1191;25642;-59
2023/03/01 04:18:23;;;;;;;;;4.25;4.25;;;;;;;;119902;1190;25632;-59
2023/03/01 04:20:55;;;;;;;;;10.00;9.00;;;;;;;;120088;1186;25673;-62
2023/03/01 04:23:23;;;;;;;;;9.00;7.00;;;;;;;;120074;1190;25466;-61
2023/03/01 04:25:54;;;;;;;;;6.50;6.00;;;;;;;;120035;1186;25177;-61
2023/03/01 04:28:32;;;;;;;;;9.25;8.00;;;;;;;;119941;1186;25499;-61
2023/03/01 04:31:12;;;;;;;;;8.00;7.75;;;;;;;;119909;1190;24770;-61
2023/03/01 04:33:47;;;;;;;;;9.50;7.75;;;;;;;;119924;1190;25628;-61
2023/03/01 04:36:17;;;;;;;;;5.67;5.67;;;;;;;;119881;1190;24725;-61
2023/03/01 04:38:48;;;;;;;;;9.00;8.00;;;;;;;;119876;1190;24913;-61
2023/03/01 04:41:19;;;;;;;;;8.00;7.00;;;;;;;;119909;1190;25127;-61
2023/03/01 04:43:48;;;;;;;;;10.75;8.50;;;;;;;;119995;1190;25029;-61
2023/03/01 04:46:18;;;;;;;;;9.00;9.00;;;;;;;;119927;1190;25229;-62
2023/03/01 04:48:47;;;;;;;;;8.33;7.33;;;;;;;;119934;1187;24856;-61
2023/03/01 04:51:16;;;;;;;;;8.00;8.00;;;;;;;;119884;1191;25480;-61
2023/03/01 04:53:44;;;;;;;;;7.25;7.00;;;;;;;;119897;1190;24818;-64
2023/03/01 04:56:14;;;;;;;;;7.67;6.00;;;;;;;;120009;1187;25269;-60
2023/03/01 04:58:42;;;;;;;;;7.00;7.00;;;;;;;;119871;1190;25159;-59
2023/03/01 05:01:16;;;;;;;;;9.25;6.25;;;;;;;;119727;1191;24696;-59
2023/03/01 05:03:47;;;;;;;;;7.00;6.50;;;;;;;;120041;1182;25158;-61
2023/03/01 05:06:16;;;;;;;;;10.00;8.00;;;;;;;;120075;1190;25498;-61
2023/03/01 05:08:45;;;;;;;;;6.75;6.75;;;;;;;;120076;1183;25629;-60
2023/03/01 05:11:13;;;;;;;;;5.75;5.75;;;;;;;;119885;1191;25061;-61
2023/03/01 05:13:41;;;;;;;;;5.75;5.50;;;;;;;;119919;1182;25028;-61
2023/03/01 05:16:10;;;;;;;;;8.25;6.00;;;;;;;;119886;1191;24707;-61
2023/03/01 05:18:40;;;;;;;;;9.00;7.33;;;;;;;;119867;1189;24724;-62
2023/03/01 05:21:11;;;;;;;;;8.33;7.33;;;;;;;;119966;1182;25368;-62
2023/03/01 05:23:39;;;;;;;;;7.50;7.50;;;;;;;;119968;1182;24845;-61
2023/03/01 05:26:08;;;;;;;;;10.75;7.75;;;;;;;;119944;1183;26482;-62
2023/03/01 05:28:58;;;;;;;;;4.00;4.00;;;;;;;;119726;1191;25288;-62
2023/03/01 05:31:28;;;;;;;;;5.00;5.00;;;;;;;;119925;1182;25488;-62
2023/03/01 05:33:56;;;;;;;;;10.50;7.25;;;;;;;;119862;1191;25359;-62
2023/03/01 05:36:24;;;;;;;;;9.33;7.67;;;;;;;;119905;1191;24916;-62
2023/03/01 05:38:52;;;;;;;;;8.33;8.33;;;;;;;;119884;1190;25602;-62
2023/03/01 05:41:21;;;;;;;;;8.67;6.33;;;;;;;;119908;1191;24868;-62
2023/03/01 05:43:49;;;;;;;;;7.25;5.75;;;;;;;;119926;1191;24904;-62
2023/03/01 05:46:17;;;;;;;;;7.00;5.25;;;;;;;;119882;1191;25272;-62
2023/03/01 05:48:48;;;;;;;;;6.00;6.00;;;;;;;;119896;1183;25126;-62
2023/03/01 05:51:17;;;;;;;;;6.00;4.67;;;;;;;;119907;1191;24717;-62
2023/03/01 05:53:45;;;;;;;;;8.25;7.25;;;;;;;;119905;1191;25236;-62
2023/03/01 05:56:14;;;;;;;;;8.00;6.33;;;;;;;;119945;1182;26210;-62
2023/03/01 05:58:42;;;;;;;;;6.00;5.00;;;;;;;;119875;1191;25620;-62
2023/03/01 06:01:13;;;;;;;;;6.33;6.00;;;;;;;;119897;1191;25179;-62
2023/03/01 06:03:41;;;;;;;;;7.00;7.00;;;;;;;;119919;1191;25530;-62
2023/03/01 06:06:10;;;;;;;;;6.00;5.00;;;;;;;;119934;1182;25260;-62
2023/03/01 06:08:38;;;;;;;;;11.25;7.25;;;;;;;;119892;1191;25198;-62
2023/03/01 06:11:07;;;;;;;;;7.67;6.67;;;;;;;;119915;1181;24916;-62
2023/03/01 06:13:35;;;;;;;;;6.50;3.25;;;;;;;;119919;1191;24998;-62
2023/03/01 06:16:06;;;;;;;;;6.75;6.00;;;;;;;;119882;1191;25556;-62
2023/03/01 06:18:35;;;;;;;;;6.00;6.00;;;;;;;;119894;1191;24947;-61
2023/03/01 06:21:03;;;;;;;;;8.67;8.00;;;;;;;;119925;1191;24873;-61
2023/03/01 06:23:32;;;;;;;;;7.00;5.00;;;;;;;;119931;1182;25367;-62
2023/03/01 06:26:04;;;;;;;;;9.00;7.50;;;;;;;;119885;1191;25580;-62
2023/03/01 06:28:33;;;;;;;;;8.75;7.00;;;;;;;;119754;1191;25111;-62
2023/03/01 06:31:01;;;;;;;;;9.00;6.00;;;;;;;;119890;1191;25066;-62
2023/03/01 06:33:30;;;;;;;;;8.00;5.50;;;;;;;;119923;1182;24954;-62
2023/03/01 06:35:58;;;;;;;;;6.00;6.00;;;;;;;;119911;1191;25398;-61
2023/03/01 06:38:26;;;;;;;;;6.00;4.33;;;;;;;;119920;1191;25311;-61
2023/03/01 06:40:56;;;;;;;;;5.00;5.00;;;;;;;;119912;1191;25252;-61
2023/03/01 06:43:24;;;;;;;;;7.00;5.50;;;;;;;;119884;1190;25242;-62
2023/03/01 06:45:52;;;;;;;;;9.25;7.25;;;;;;;;119913;1182;24886;-61
2023/03/01 06:48:21;;;;;;;;;10.67;7.00;;;;;;;;119931;1181;25552;-61
2023/03/01 06:50:49;;;;;;;;;7.75;7.50;;;;;;;;119926;1190;24929;-61
2023/03/01 06:53:17;;;;;;;;;8.25;5.00;;;;;;;;119906;1190;25997;-61
2023/03/01 06:55:46;;;;;;;;;7.67;7.00;;;;;;;;119901;1182;24951;-61
2023/03/01 06:58:14;;;;;;;;;7.25;6.50;;;;;;;;119924;1182;25307;-61
2023/03/01 07:00:43;;;;;;;;;9.25;8.00;;;;;;;;119925;1190;25139;-61
2023/03/01 07:03:11;;;;;;;;;5.67;5.67;;;;;;;;119921;1190;24798;-61
2023/03/01 07:05:40;;;;;;;;;9.00;6.00;;;;;;;;119919;1190;24754;-61
2023/03/01 07:08:08;;;;;;;;;4.00;4.00;;;;;;;;119896;1190;25752;-61
2023/03/01 07:10:37;;;;;;;;;5.67;4.00;;;;;;;;119929;1190;24716;-61
2023/03/01 07:13:06;;;;;;;;;4.00;2.67;;;;;;;;119881;1190;24927;-61
2023/03/01 07:15:35;;;;;;;;;8.00;7.00;;;;;;;;119906;1182;25589;-61
2023/03/01 07:18:03;;;;;;;;;7.75;7.75;;;;;;;;119897;1190;25573;-61
2023/03/01 07:20:32;;;;;;;;;9.00;9.00;;;;;;;;119914;1181;25634;-61
2023/03/01 07:23:00;;;;;;;;;9.00;4.50;;;;;;;;119911;1182;25631;-61
2023/03/01 07:25:28;;;;;;;;;7.25;7.25;;;;;;;;119917;1190;25610;-61
2023/03/01 07:27:56;;;;;;;;;6.67;6.67;;;;;;;;119886;1190;24967;-61
2023/03/01 07:30:28;;;;;;;;;9.00;8.00;;;;;;;;119927;1181;25649;-61
2023/03/01 07:32:57;;;;;;;;;5.00;5.00;;;;;;;;119905;1190;25344;-62
2023/03/01 07:35:26;;;;;;;;;8.25;6.50;;;;;;;;119901;1190;25592;-61
2023/03/01 07:37:55;;;;;;;;;10.00;8.00;;;;;;;;119721;1183;25014;-61
2023/03/01 07:40:23;;;;;;;;;6.33;6.33;;;;;;;;119913;1181;25242;-61
2023/03/01 07:42:58;;;;;;;;;6.75;6.00;;;;;;;;119944;1190;25463;-61
2023/03/01 07:45:28;;;;;;;;;5.75;5.00;;;;;;;;119915;1190;24780;-61
2023/03/01 07:47:56;;;;;;;;;11.00;7.00;;;;;;;;119716;1190;24791;-61
2023/03/01 07:50:24;;;;;;;;;6.00;5.00;;;;;;;;119909;1190;25244;-61
2023/03/01 07:52:52;;;;;;;;;7.00;6.50;;;;;;;;119916;1190;25786;-61
2023/03/01 07:55:21;;;;;;;;;8.75;8.00;;;;;;;;119921;1182;25023;-61
2023/03/01 07:57:49;;;;;;;;;8.25;6.00;;;;;;;;119938;1182;25313;-61
2023/03/01 08:00:17;;;;;;;;;7.00;6.33;;;;;;;;119914;1190;25670;-61
2023/03/01 08:02:46;;;;;;;;;6.00;5.00;;;;;;;;119920;1182;25233;-61
2023/03/01 08:05:14;;;;;;;;;7.25;6.00;;;;;;;;119928;1190;25518;-61
2023/03/01 08:07:43;;;;;;;;;6.50;6.50;;;;;;;;119913;1190;24963;-61
2023/03/01 08:10:11;;;;;;;;;6.75;6.75;;;;;;;;119931;1182;25561;-61
2023/03/01 08:12:39;;;;;;;;;7.50;6.00;;;;;;;;119897;1190;25381;-62
2023/03/01 08:15:08;;;;;;;;;7.00;7.00;;;;;;;;119953;1190;25209;-61
2023/03/01 08:17:36;;;;;;;;;5.50;5.50;;;;;;;;119923;1190;24924;-61
2023/03/01 08:20:06;;;;;;;;;7.75;6.00;;;;;;;;119904;1190;25706;-61
2023/03/01 08:22:35;;;;;;;;;6.67;6.67;;;;;;;;119919;1190;24992;-61
2023/03/01 08:25:03;;;;;;;;;6.33;6.33;;;;;;;;119926;1182;25611;-61
2023/03/01 08:27:31;;;;;;;;;7.50;6.00;;;;;;;;119921;1190;24991;-61
2023/03/01 08:30:00;;;;;;;;;7.50;7.25;;;;;;;;119914;1181;25426;-61
2023/03/01 08:32:28;;;;;;;;;6.75;4.75;;;;;;;;119918;1186;25251;-61
2023/03/01 08:34:57;;;;;;;;;4.00;4.00;;;;;;;;120135;1179;25553;-61
2023/03/01 08:37:25;;;;;;;;;5.67;5.00;;;;;;;;119918;1190;24928;-61
2023/03/01 08:39:54;;;;;;;;;6.75;5.50;;;;;;;;119904;1190;25218;-61
2023/03/01 08:42:23;;;;;;;;;5.00;4.67;;;;;;;;119941;1190;25603;-61
2023/03/01 08:44:51;;;;;;;;;7.33;6.00;;;;;;;;119743;1182;24753;-61
2023/03/01 08:47:19;;;;;;;;;6.25;5.75;;;;;;;;119882;1187;25260;-61
2023/03/01 08:49:50;;;;;;;;;5.67;4.67;;;;;;;;119890;1190;25394;-61
2023/03/01 08:52:19;;;;;;;;;7.25;6.00;;;;;;;;119894;1190;25028;-61
2023/03/01 08:54:48;;;;;;;;;6.00;6.00;;;;;;;;119868;1190;25058;-61
2023/03/01 08:57:17;;;;;;;;;10.75;6.25;;;;;;;;119882;1190;25364;-61
2023/03/01 08:59:45;;;;;;;;;7.00;5.50;;;;;;;;119915;1190;25277;-61
2023/03/01 09:02:16;;;;;;;;;7.00;7.00;;;;;;;;119901;1182;25651;-61
2023/03/01 09:04:45;;;;;;;;;7.50;6.00;;;;;;;;119935;1182;25357;-60
2023/03/01 09:07:13;;;;;;;;;5.75;5.75;;;;;;;;119924;1190;25237;-60
2023/03/01 09:09:42;;;;;;;;;7.00;7.00;;;;;;;;119965;1177;25637;-60
2023/03/01 09:12:10;;;;;;;;;6.33;6.33;;;;;;;;119939;1181;25585;-60
2023/03/01 09:14:40;;;;;;;;;8.00;7.00;;;;;;;;119875;1190;25580;-60
2023/03/01 09:17:09;;;;;;;;;5.00;5.00;;;;;;;;119893;1190;25078;-60
2023/03/01 09:19:38;;;;;;;;;8.67;6.00;;;;;;;;119909;1190;24970;-60
2023/03/01 09:22:06;;;;;;;;;8.00;6.25;;;;;;;;119918;1181;24785;-60
2023/03/01 09:24:34;;;;;;;;;5.00;4.00;;;;;;;;119936;1182;25351;-60
2023/03/01 09:27:02;;;;;;;;;6.50;6.50;;;;;;;;119884;1190;25156;-60
2023/03/01 09:29:31;;;;;;;;;6.50;6.50;;;;;;;;119899;1190;25156;-60
2023/03/01 09:32:00;;;;;;;;;5.00;4.33;;;;;;;;119901;1190;25327;-60
2023/03/01 09:34:29;;;;;;;;;7.33;7.33;;;;;;;;119920;1190;25151;-60
2023/03/01 09:36:57;;;;;;;;;10.50;8.50;;;;;;;;119910;1190;25276;-60
2023/03/01 09:39:26;;;;;;;;;6.75;6.00;;;;;;;;119887;1190;25662;-60
2023/03/01 09:42:04;;;;;;;;;8.00;7.33;;;;;;;;119919;1190;25572;-60
2023/03/01 09:44:48;;;;;;;;;8.33;6.00;;;;;;;;119740;1190;25101;-60
2023/03/01 09:47:20;;;;;;;;;7.50;6.00;;;;;;;;119916;1190;25287;-60
2023/03/01 09:49:58;;;;;;;;;6.75;5.00;;;;;;;;119890;1182;25376;-60
2023/03/01 09:52:40;;;;;;;;;1.33;1.33;;;;;;;;119912;1186;26092;-60
2023/03/01 09:55:14;;;;;;;;;6.50;6.50;;;;;;;;119892;1190;25531;-60
2023/03/01 09:57:55;;;;;;;;;8.00;5.50;;;;;;;;119887;1190;25481;-60
2023/03/01 10:00:24;;;;;;;;;5.50;5.50;;;;;;;;119909;1190;25542;-60
2023/03/01 10:03:16;;;;;;;;;7.00;6.25;;;;;;;;119938;1182;25603;-60
2023/03/01 10:06:02;;;;;;;;;6.67;4.00;;;;;;;;119888;1190;25529;-61
2023/03/01 10:08:43;;;;;;;;;8.00;7.00;;;;;;;;119926;1190;25785;-60
2023/03/01 10:11:31;;;;;;;;;7.67;6.00;;;;;;;;119874;1190;25638;-60
2023/03/01 10:14:08;;;;;;;;;8.00;6.67;;;;;;;;119930;1190;24886;-60
2023/03/01 10:16:52;;;;;;;;;6.00;6.00;;;;;;;;119782;1179;25484;-60
2023/03/01 10:19:31;;;;;;;;;6.00;6.00;;;;;;;;119897;1190;25881;-60
2023/03/01 10:22:05;;;;;;;;;7.00;6.00;;;;;;;;119881;1190;25285;-61
2023/03/01 10:24:35;;;;;;;;;8.00;7.67;;;;;;;;119884;1190;25639;-61
2023/03/01 10:27:19;;;;;;;;;5.75;3.75;;;;;;;;119757;1190;25219;-60
2023/03/01 10:30:19;;;;;;;;;5.00;4.00;;;;;;;;119900;1190;25473;-60
2023/03/01 10:33:00;;;;;;;;;8.33;4.67;;;;;;;;119728;1190;24996;-60
2023/03/01 10:35:33;;;;;;;;;6.00;5.00;;;;;;;;119931;1190;25334;-60
2023/03/01 10:38:11;;;;;;;;;6.00;5.00;;;;;;;;119933;1190;26068;-61
2023/03/01 10:41:08;;;;;;;;;6.25;5.00;;;;;;;;119729;1183;25336;-61
2023/03/01 10:43:49;;;;;;;;;6.00;6.00;;;;;;;;119825;1190;25084;-61
2023/03/01 10:46:27;;;;;;;;;4.33;3.00;;;;;;;;119913;1182;25311;-61
2023/03/01 10:49:19;;;;;;;;;6.67;5.33;;;;;;;;119912;1181;24901;-60
2023/03/01 10:51:52;;;;;;;;;5.00;5.00;;;;;;;;119904;1190;24851;-61
2023/03/01 10:54:31;;;;;;;;;4.50;4.00;;;;;;;;119896;1190;25050;-60
2023/03/01 10:57:02;;;;;;;;;6.50;6.50;;;;;;;;119890;1190;25650;-60
2023/03/01 10:59:31;;;;;;;;;6.00;6.00;;;;;;;;119885;1190;24749;-60
2023/03/01 11:02:27;;;;;;;;;6.33;5.67;;;;;;;;119898;1190;24914;-60
2023/03/01 11:05:23;;;;;;;;;3.50;3.50;;;;;;;;119921;1190;25395;-60
2023/03/01 11:07:54;;;;;;;;;4.75;4.75;;;;;;;;119735;1190;25286;-60
2023/03/01 11:10:36;;;;;;;;;8.33;6.67;;;;;;;;119876;1190;25788;-60
2023/03/01 11:13:16;;;;;;;;;5.50;5.00;;;;;;;;119894;1182;25707;-60
2023/03/01 11:16:02;;;;;;;;;5.50;4.00;;;;;;;;119878;1190;24887;-60
2023/03/01 11:18:31;;;;;;;;;7.00;6.00;;;;;;;;119921;1190;24717;-60
2023/03/01 11:21:16;;;;;;;;;4.67;4.00;;;;;;;;119918;1182;25459;-60
2023/03/01 11:23:45;;;;;;;;;7.00;6.67;;;;;;;;119891;1190;25180;-60
2023/03/01 11:26:15;;;;;;;;;7.25;7.25;;;;;;;;119917;1190;25585;-60
2023/03/01 11:28:47;;;;;;;;;6.00;6.00;;;;;;;;119901;1182;25410;-60
2023/03/01 11:31:16;;;;;;;;;6.00;6.00;;;;;;;;119917;1190;25221;-60
2023/03/01 11:33:51;;;;;;;;;5.33;4.33;;;;;;;;119917;1190;25049;-60
2023/03/01 11:36:35;;;;;;;;;8.00;5.67;;;;;;;;119927;1190;25600;-60
2023/03/01 11:39:28;;;;;;;;;5.75;5.25;;;;;;;;119917;1186;25555;-60
2023/03/01 11:42:06;;;;;;;;;5.50;5.00;;;;;;;;119929;1182;25150;-60
2023/03/01 11:44:48;;;;;;;;;4.75;4.75;;;;;;;;119919;1182;24879;-60
2023/03/01 11:47:27;;;;;;;;;6.00;6.00;;;;;;;;119906;1190;25882;-61
2023/03/01 11:50:15;;;;;;;;;5.75;4.75;;;;;;;;119938;1190;25392;-60
2023/03/01 11:52:53;;;;;;;;;6.33;4.67;;;;;;;;119909;1190;25675;-60
2023/03/01 11:55:34;;;;;;;;;6.00;4.00;;;;;;;;119912;1190;24899;-60
2023/03/01 11:58:05;;;;;;;;;3.50;3.50;;;;;;;;119888;1190;25581;-60
2023/03/01 12:00:44;;;;;;;;;5.00;5.00;;;;;;;;119937;1182;25469;-60
2023/03/01 12:03:30;;;;;;;;;8.33;5.33;;;;;;;;119924;1190;24791;-60
2023/03/01 12:06:38;;;;;;;;;6.75;5.75;;;;;;;;119954;1182;24934;-61
2023/03/01 12:09:24;;;;;;;;;7.33;5.33;;;;;;;;119888;1190;25568;-60
2023/03/01 12:12:09;;;;;;;;;3.75;2.75;;;;;;;;119903;1182;24938;-60
2023/03/01 12:14:59;;;;;;;;;5.33;5.00;;;;;;;;119915;1181;25151;-60
2023/03/01 12:18:08;;;;;;;;;4.50;4.00;;;;;;;;119935;1182;25559;-60
2023/03/01 12:20:56;;;;;;;;;3.00;3.00;;;;;;;;119879;1190;25221;-60
2023/03/01 12:24:03;;;;;;;;;6.25;4.50;;;;;;;;119896;1190;25513;-60
2023/03/01 12:26:40;;;;;;;;;2.67;2.67;;;;;;;;119902;1190;25681;-61
2023/03/01 12:29:23;;;;;;;;;5.00;5.00;;;;;;;;119919;1181;25001;-60
2023/03/01 12:32:07;;;;;;;;;7.67;6.33;;;;;;;;119926;1181;25011;-60
2023/03/01 12:34:59;;;;;;;;;6.25;4.50;;;;;;;;119919;1190;24834;-60
2023/03/01 12:38:17;;;;;;;;;5.75;4.00;;;;;;;;119937;1182;25306;-60
2023/03/01 12:41:00;;;;;;;;;5.00;5.00;;;;;;;;119799;1190;25653;-60
2023/03/01 12:43:40;;;;;;;;;4.50;4.50;;;;;;;;119929;1190;25398;-61
2023/03/01 12:46:56;;;;;;;;;4.00;4.00;;;;;;;;119936;1181;25766;-60
2023/03/01 12:49:32;;;;;;;;;7.00;6.50;;;;;;;;119882;1190;24954;-60
2023/03/01 12:52:13;;;;;;;;;6.75;5.00;;;;;;;;119908;1187;25260;-61
2023/03/01 12:54:42;;;;;;;;;5.00;5.00;;;;;;;;119918;1190;24777;-61
2023/03/01 12:57:36;;;;;;;;;6.50;4.50;;;;;;;;119880;1190;25849;-61
2023/03/01 13:00:20;;;;;;;;;6.00;6.00;;;;;;;;119919;1190;25481;-61
2023/03/01 13:03:27;;;;;;;;;6.00;4.33;;;;;;;;119925;1190;24824;-61
2023/03/01 13:06:18;;;;;;;;;5.25;3.00;;;;;;;;119930;1190;25653;-60
2023/03/01 13:08:49;;;;;;;;;6.00;5.00;;;;;;;;119908;1190;25128;-60
2023/03/01 13:11:21;;;;;;;;;3.50;3.00;;;;;;;;119920;1190;25568;-60
2023/03/01 13:13:51;;;;;;;;;3.33;3.33;;;;;;;;119715;1189;25169;-60
2023/03/01 13:16:27;;;;;;;;;4.33;4.33;;;;;;;;119904;1190;25177;-60
2023/03/01 13:19:10;;;;;;;;;6.25;5.75;;;;;;;;119950;1182;25149;-60
2023/03/01 13:21:38;;;;;;;;;8.25;4.50;;;;;;;;119912;1187;25115;-60
2023/03/01 13:24:23;;;;;;;;;4.00;3.00;;;;;;;;119919;1182;25640;-60
2023/03/01 13:27:07;;;;;;;;;4.00;4.00;;;;;;;;119911;1190;25505;-60
2023/03/01 13:29:47;;;;;;;;;5.67;4.33;;;;;;;;119904;1190;25359;-60
2023/03/01 13:32:38;;;;;;;;;4.33;4.00;;;;;;;;119884;1190;24972;-60
2023/03/01 13:35:19;;;;;;;;;4.50;4.00;;;;;;;;119890;1190;25027;-60
2023/03/01 13:37:47;;;;;;;;;6.25;6.00;;;;;;;;119917;1190;25233;-60
2023/03/01 13:40:16;;;;;;;;;4.75;4.75;;;;;;;;119920;1190;25181;-61
2023/03/01 13:42:51;;;;;;;;;5.33;4.33;;;;;;;;119935;1181;25210;-60
2023/03/01 13:45:40;;;;;;;;;7.75;7.00;;;;;;;;119901;1190;24947;-61
2023/03/01 13:48:18;;;;;;;;;5.33;5.33;;;;;;;;119921;1190;26296;-61
2023/03/01 13:50:54;;;;;;;;;4.00;3.00;;;;;;;;119906;1182;25329;-61
2023/03/01 13:53:25;;;;;;;;;6.67;5.33;;;;;;;;119885;1190;25154;-61
2023/03/01 13:56:09;;;;;;;;;5.75;5.00;;;;;;;;119882;1190;24950;-60
2023/03/01 13:58:48;;;;;;;;;5.00;5.00;;;;;;;;119941;1182;25495;-61
2023/03/01 14:01:28;;;;;;;;;6.75;4.00;;;;;;;;119911;1190;25179;-61
2023/03/01 14:03:58;;;;;;;;;9.00;7.00;;;;;;;;119891;1190;24885;-61
2023/03/01 14:06:31;;;;;;;;;5.25;5.25;;;;;;;;119883;1188;25014;-61
2023/03/01 14:09:15;;;;;;;;;6.00;5.00;;;;;;;;119919;1182;25455;-61
2023/03/01 14:11:49;;;;;;;;;6.00;4.00;;;;;;;;119894;1190;25127;-61
2023/03/01 14:14:31;;;;;;;;;6.67;4.00;;;;;;;;119929;1190;25061;-61
2023/03/01 14:17:12;;;;;;;;;4.00;4.00;;;;;;;;119907;1182;25478;-61
2023/03/01 14:19:44;;;;;;;;;5.00;4.00;;;;;;;;119908;1186;25757;-61
2023/03/01 14:22:18;;;;;;;;;5.67;4.00;;;;;;;;119892;1183;25654;-61
2023/03/01 14:24:57;;;;;;;;;3.50;3.50;;;;;;;;119932;1190;25659;-61
2023/03/01 14:27:45;;;;;;;;;5.25;4.25;;;;;;;;119919;1190;25488;-61
2023/03/01 14:30:48;;;;;;;;;5.50;4.00;;;;;;;;119891;1182;25325;-60
2023/03/01 14:33:35;;;;;;;;;5.50;4.75;;;;;;;;119818;1190;25534;-60
2023/03/01 14:36:12;;;;;;;;;6.50;6.00;;;;;;;;119925;1190;26005;-61
2023/03/01 14:38:45;;;;;;;;;6.75;5.50;;;;;;;;119999;1182;25234;-60
2023/03/01 14:41:18;;;;;;;;;5.00;5.00;;;;;;;;119914;1190;25668;-60
2023/03/01 14:43:51;;;;;;;;;6.25;4.25;;;;;;;;119928;1190;25654;-60
2023/03/01 14:46:20;;;;;;;;;5.00;5.00;;;;;;;;119913;1183;24926;-60
2023/03/01 14:48:56;;;;;;;;;5.33;5.33;;;;;;;;119884;1182;25331;-60
2023/03/01 14:51:24;;;;;;;;;4.75;4.75;;;;;;;;119900;1182;25355;-60
2023/03/01 14:53:53;;;;;;;;;4.00;3.25;;;;;;;;119912;1191;25518;-60
2023/03/01 14:56:22;;;;;;;;;4.67;4.67;;;;;;;;119865;1182;25408;-60
2023/03/01 14:58:58;;;;;;;;;5.00;4.25;;;;;;;;119922;1191;25491;-60
2023/03/01 15:01:26;;;;;;;;;22.75;20.75;;;;;;;;119903;1191;25672;-62
2023/03/01 15:03:55;;;;;;;;;26.00;24.75;;;;;;;;119920;1182;24944;-62